logo dgac
Lunes 20 de Mayo del 2019
Buscar por aerodromo o helipuerto
Ingrese nombre de aeródromo, localidad o designador OACI:
METAR del 20-05-2019 a las 13:00 UTC
METAR SCIP 201300Z 32007KT 270V330 9999 SCT020 BKN040 22/22 Q1013 NOSIG
Viento: dirección 320 grados, velocidad 7 nudos
Viento con dirección variable entre 270 y 330 grados
Visibilidad: 10 km o más
Nubes: Nubosidad parcial a 2000 pies sobre el nivel del aeródromo
Nubes: Nublado a 4000 pies sobre el nivel del aeródromo
Temperatura: 22 °C
Rocío: 22 °C
Humedad_relativa: 100%
Presión: 1013 hPa
No se esperan cambios significativos en las próximas 2 horas
METAR del 20-05-2019 a las 12:00 UTC
METAR SCIP 201200Z 32008KT 9999 SCT020 BKN040 22/22 Q1013 NOSIG
Viento: dirección 320 grados, velocidad 8 nudos
Visibilidad: 10 km o más
Nubes: Nubosidad parcial a 2000 pies sobre el nivel del aeródromo
Nubes: Nublado a 4000 pies sobre el nivel del aeródromo
Temperatura: 22 °C
Rocío: 22 °C
Humedad_relativa: 100%
Presión: 1013 hPa
No se esperan cambios significativos en las próximas 2 horas
METAR del 20-05-2019 a las 12:00 UTC
METAR SCIP 201200Z 32008KT 9999 SCT020 BKN040 22/22 Q1013 NOSIG
Viento: dirección 320 grados, velocidad 8 nudos
Visibilidad: 10 km o más
Nubes: Nubosidad parcial a 2000 pies sobre el nivel del aeródromo
Nubes: Nublado a 4000 pies sobre el nivel del aeródromo
Temperatura: 22 °C
Rocío: 22 °C
Humedad_relativa: 100%
Presión: 1013 hPa
No se esperan cambios significativos en las próximas 2 horas
METAR del 20-05-2019 a las 11:00 UTC
METAR SCIP 201100Z 32007KT 280V340 9999 FEW020 SCT040 BKN250 22/22 Q1013 NOSIG
Viento: dirección 320 grados, velocidad 7 nudos
Viento con dirección variable entre 280 y 340 grados
Visibilidad: 10 km o más
Nubes: Escasa nubosidad a 2000 pies sobre el nivel del aeródromo
Nubes: Nubosidad parcial a 4000 pies sobre el nivel del aeródromo
Nubes: Nublado a 25000 pies sobre el nivel del aeródromo
Temperatura: 22 °C
Rocío: 22 °C
Humedad_relativa: 100%
Presión: 1013 hPa
No se esperan cambios significativos en las próximas 2 horas
METAR del 20-05-2019 a las 10:00 UTC
METAR SCIP 201000Z 31007KT 9999 SCT020 SCT040 BKN250 22/22 Q1013 NOSIG
Viento: dirección 310 grados, velocidad 7 nudos
Visibilidad: 10 km o más
Nubes: Nubosidad parcial a 2000 pies sobre el nivel del aeródromo
Nubes: Nubosidad parcial a 4000 pies sobre el nivel del aeródromo
Nubes: Nublado a 25000 pies sobre el nivel del aeródromo
Temperatura: 22 °C
Rocío: 22 °C
Humedad_relativa: 100%
Presión: 1013 hPa
No se esperan cambios significativos en las próximas 2 horas
METAR del 20-05-2019 a las 09:00 UTC
METAR SCIP 200900Z 30006KT 9999 FEW015 BKN020 BKN040 22/22 Q1014 NOSIG
Viento: dirección 300 grados, velocidad 6 nudos
Visibilidad: 10 km o más
Nubes: Escasa nubosidad a 1500 pies sobre el nivel del aeródromo
Nubes: Nublado a 2000 pies sobre el nivel del aeródromo
Nubes: Nublado a 4000 pies sobre el nivel del aeródromo
Temperatura: 22 °C
Rocío: 22 °C
Humedad_relativa: 100%
Presión: 1014 hPa
No se esperan cambios significativos en las próximas 2 horas
METAR del 20-05-2019 a las 08:00 UTC
METAR SCIP 200800Z 30005KT 9999 SCT020 BKN030 21/21 Q1015 NOSIG
Viento: dirección 300 grados, velocidad 5 nudos
Visibilidad: 10 km o más
Nubes: Nubosidad parcial a 2000 pies sobre el nivel del aeródromo
Nubes: Nublado a 3000 pies sobre el nivel del aeródromo
Temperatura: 21 °C
Rocío: 21 °C
Humedad_relativa: 100%
Presión: 1015 hPa
No se esperan cambios significativos en las próximas 2 horas
METAR del 20-05-2019 a las 07:00 UTC
METAR SCIP 200700Z 30003KT 9999 SCT020 BKN030 21/21 Q1015 NOSIG
Viento: dirección 300 grados, velocidad 3 nudos
Visibilidad: 10 km o más
Nubes: Nubosidad parcial a 2000 pies sobre el nivel del aeródromo
Nubes: Nublado a 3000 pies sobre el nivel del aeródromo
Temperatura: 21 °C
Rocío: 21 °C
Humedad_relativa: 100%
Presión: 1015 hPa
No se esperan cambios significativos en las próximas 2 horas
METAR del 20-05-2019 a las 06:00 UTC
METAR SCIP 200600Z 30005KT 8000 -SHRA FEW010 BKN020 BKN030 21/21 Q1015 NOSIG
Viento: dirección 300 grados, velocidad 5 nudos
Visibilidad: 8000 metros
Débil ChubascosLluvia
Nubes: Escasa nubosidad a 1000 pies sobre el nivel del aeródromo
Nubes: Nublado a 2000 pies sobre el nivel del aeródromo
Nubes: Nublado a 3000 pies sobre el nivel del aeródromo
Temperatura: 21 °C
Rocío: 21 °C
Humedad_relativa: 100%
Presión: 1015 hPa
No se esperan cambios significativos en las próximas 2 horas
METAR del 20-05-2019 a las 05:00 UTC
METAR SCIP 200500Z 32003KT 9999 FEW010 BKN020 BKN040 21/21 Q1015 RESHRA NOSIG
Viento: dirección 320 grados, velocidad 3 nudos
Visibilidad: 10 km o más
Nubes: Escasa nubosidad a 1000 pies sobre el nivel del aeródromo
Nubes: Nublado a 2000 pies sobre el nivel del aeródromo
Nubes: Nublado a 4000 pies sobre el nivel del aeródromo
Temperatura: 21 °C
Rocío: 21 °C
Humedad_relativa: 100%
Presión: 1015 hPa
Se observó recientemente ChubascosLluvia
No se esperan cambios significativos en las próximas 2 horas